Time;durP1;ratioP1;P1;durP2;ratioP2;P2;SDS_P1;SDS_P2;PMS_P1;PMS_P2;Temp;Humidity;BMP_temperature;BMP_pressure;BME280_temperature;BME280_humidity;BME280_pressure;Samples;Min_cycle;Max_cycle;Signal;HPM_P1;HPM_P2
2024/01/04 00:01:34;;;;;;;8.20;5.20;;;;;;;0.21;100.00;98173.73;104595;1256;60642;-54
2024/01/04 00:04:02;;;;;;;6.10;3.70;;;;;;;0.30;100.00;98181.95;104890;1254;73877;-55
2024/01/04 00:06:29;;;;;;;8.90;4.00;;;;;;;0.40;100.00;98176.83;104776;1258;67421;-54
2024/01/04 00:08:56;;;;;;;6.50;3.40;;;;;;;0.53;100.00;98176.25;104569;1259;73220;-54
2024/01/04 00:11:24;;;;;;;4.90;2.50;;;;;;;0.66;100.00;98183.36;104722;1260;60550;-53
2024/01/04 00:13:52;;;;;;;4.30;2.50;;;;;;;0.81;100.00;98182.71;108897;1253;58856;-54
2024/01/04 00:16:19;;;;;;;4.20;2.60;;;;;;;0.95;100.00;98183.65;106834;1256;72723;-54
2024/01/04 00:18:46;;;;;;;5.00;1.90;;;;;;;1.07;100.00;98183.89;104783;1258;64849;-53
2024/01/04 00:21:14;;;;;;;2.40;1.70;;;;;;;1.20;100.00;98184.35;104620;1255;71525;-54
2024/01/04 00:23:42;;;;;;;2.90;1.40;;;;;;;1.31;100.00;98186.77;105799;1259;61930;-53
2024/01/04 00:26:09;;;;;;;3.20;1.40;;;;;;;1.42;100.00;98189.36;104802;1256;60560;-54
2024/01/04 00:28:37;;;;;;;2.10;1.30;;;;;;;1.52;100.00;98189.00;104711;1253;72489;-55
2024/01/04 00:31:04;;;;;;;4.30;1.50;;;;;;;1.59;100.00;98189.27;104512;1260;65638;-53
2024/01/04 00:33:32;;;;;;;3.80;1.50;;;;;;;1.65;100.00;98192.20;105380;1257;70770;-54
2024/01/04 00:35:59;;;;;;;3.20;1.50;;;;;;;1.69;100.00;98194.02;108117;1253;60464;-54
2024/01/04 00:38:27;;;;;;;1.90;0.90;;;;;;;1.72;100.00;98194.45;104606;1254;60494;-54
2024/01/04 00:40:54;;;;;;;2.00;0.80;;;;;;;1.73;100.00;98195.80;104673;1258;73884;-54
2024/01/04 00:43:21;;;;;;;2.20;1.30;;;;;;;1.75;100.00;98200.69;104765;1259;65973;-54
2024/01/04 00:45:49;;;;;;;1.20;0.80;;;;;;;1.76;100.00;98201.55;104543;1254;71940;-54
2024/01/04 00:48:16;;;;;;;1.30;0.90;;;;;;;1.77;100.00;98205.92;104687;1258;63285;-54
2024/01/04 00:50:44;;;;;;;4.00;0.70;;;;;;;1.80;100.00;98201.54;104775;1259;60484;-55
2024/01/04 00:53:12;;;;;;;1.30;0.80;;;;;;;1.86;100.00;98197.46;104659;1256;72542;-55
2024/01/04 00:55:39;;;;;;;1.40;0.70;;;;;;;1.91;100.00;98205.57;104970;1259;68406;-55
2024/01/04 00:58:06;;;;;;;2.40;0.60;;;;;;;1.97;100.00;98207.80;104901;1256;71450;-55
2024/01/04 01:00:34;;;;;;;1.10;0.60;;;;;;;2.05;100.00;98213.70;104852;1256;60632;-55
2024/01/04 01:03:01;;;;;;;1.00;0.60;;;;;;;2.10;100.00;98219.33;104848;1258;60524;-56
2024/01/04 01:05:29;;;;;;;1.30;0.50;;;;;;;2.15;100.00;98218.25;104947;1256;73889;-54
2024/01/04 01:07:57;;;;;;;1.50;0.50;;;;;;;2.20;100.00;98220.52;105645;1260;65736;-55
2024/01/04 01:10:26;;;;;;;1.80;0.50;;;;;;;2.26;100.00;98223.48;105186;1259;71454;-54
2024/01/04 01:12:53;;;;;;;1.50;0.60;;;;;;;2.31;100.00;98225.95;104836;1262;60500;-54
2024/01/04 01:15:21;;;;;;;0.60;0.40;;;;;;;2.36;100.00;98221.16;104807;1256;60439;-55
2024/01/04 01:17:49;;;;;;;0.60;0.50;;;;;;;2.43;100.00;98227.77;104803;1253;73887;-55
2024/01/04 01:20:16;;;;;;;0.70;0.60;;;;;;;2.50;100.00;98227.30;104720;1260;67102;-55
2024/01/04 01:22:43;;;;;;;0.60;0.50;;;;;;;2.57;100.00;98229.14;104884;1257;72233;-54
2024/01/04 01:25:11;;;;;;;0.70;0.40;;;;;;;2.64;100.00;98230.47;104776;1254;60610;-53
2024/01/04 01:27:38;;;;;;;0.80;0.50;;;;;;;2.69;100.00;98236.13;104884;1256;60610;-54
2024/01/04 01:30:06;;;;;;;0.70;0.50;;;;;;;2.72;100.00;98238.45;104823;1254;76369;-55
2024/01/04 01:32:34;;;;;;;0.90;0.50;;;;;;;2.75;100.00;98237.08;105169;1254;65803;-54
2024/01/04 01:35:02;;;;;;;0.70;0.50;;;;;;;2.80;100.00;98238.85;104871;1255;70357;-54
2024/01/04 01:37:29;;;;;;;0.70;0.50;;;;;;;2.82;100.00;98235.73;104896;1259;61100;-53
2024/01/04 01:39:57;;;;;;;3.20;0.90;;;;;;;2.84;100.00;98233.89;104586;1258;60492;-55
2024/01/04 01:42:24;;;;;;;0.70;0.40;;;;;;;2.86;100.00;98239.64;104882;1256;71937;-53
2024/01/04 01:44:51;;;;;;;0.80;0.50;;;;;;;2.89;100.00;98248.02;104437;1261;66967;-54
2024/01/04 01:47:19;;;;;;;1.40;0.40;;;;;;;2.93;100.00;98245.54;104469;1259;72742;-54
2024/01/04 01:49:46;;;;;;;2.40;0.40;;;;;;;2.97;100.00;98249.80;104684;1258;60697;-55
2024/01/04 01:52:13;;;;;;;0.70;0.50;;;;;;;3.01;100.00;98257.06;108903;1253;58993;-55
2024/01/04 01:54:41;;;;;;;0.80;0.50;;;;;;;3.05;100.00;98261.52;104943;1257;75731;-53
2024/01/04 01:57:08;;;;;;;0.60;0.40;;;;;;;3.10;100.00;98260.99;104529;1260;66922;-53
2024/01/04 01:59:36;;;;;;;0.80;0.50;;;;;;;3.11;100.00;98263.07;104737;1258;71802;-53
2024/01/04 02:02:03;;;;;;;1.40;0.50;;;;;;;3.12;100.00;98263.22;108783;1253;59459;-54
2024/01/04 02:04:31;;;;;;;0.80;0.60;;;;;;;3.13;100.00;98266.02;105970;1261;60449;-53
2024/01/04 02:06:58;;;;;;;0.90;0.60;;;;;;;3.14;100.00;98265.81;104834;1254;73923;-55
2024/01/04 02:09:26;;;;;;;0.80;0.60;;;;;;;3.15;100.00;98268.02;105458;1256;66947;-54
2024/01/04 02:12:09;;;;;;;2.60;0.70;;;;;;;3.18;100.00;98270.19;104625;1253;72814;-53
2024/01/04 02:14:38;;;;;;;1.80;0.60;;;;;;;3.22;100.00;98275.53;106225;1255;61653;-52
2024/01/04 02:17:06;;;;;;;0.80;0.60;;;;;;;3.26;100.00;98274.13;106592;1253;60452;-53
2024/01/04 02:19:33;;;;;;;1.90;0.90;;;;;;;3.30;100.00;98275.53;104617;1253;73444;-51
2024/01/04 02:22:02;;;;;;;2.20;1.00;;;;;;;3.34;100.00;98280.69;104847;1256;66014;-52
2024/01/04 02:24:29;;;;;;;1.90;0.70;;;;;;;3.36;100.00;98285.20;104851;1254;71398;-52
2024/01/04 02:26:57;;;;;;;2.60;0.60;;;;;;;3.38;100.00;98286.38;104746;1254;60551;-52
2024/01/04 02:29:24;;;;;;;2.80;0.70;;;;;;;3.38;100.00;98286.02;104645;1255;60805;-52
2024/01/04 02:31:51;;;;;;;1.40;0.80;;;;;;;3.38;100.00;98285.86;108835;1253;72662;-53
2024/01/04 02:34:19;;;;;;;1.30;0.70;;;;;;;3.38;100.00;98289.23;108923;1253;65639;-54
2024/01/04 02:36:46;;;;;;;2.80;1.00;;;;;;;3.37;100.00;98289.26;108891;1256;71431;-53
2024/01/04 02:39:13;;;;;;;0.90;0.60;;;;;;;3.37;100.00;98294.73;108907;1255;59750;-53
2024/01/04 02:41:41;;;;;;;1.20;0.70;;;;;;;3.39;100.00;98298.05;108919;1253;58460;-53
2024/01/04 02:44:08;;;;;;;1.20;0.70;;;;;;;3.40;100.00;98298.34;109128;1254;74409;-52
2024/01/04 02:46:38;;;;;;;0.80;0.50;;;;;;;3.44;100.00;98307.23;108910;1256;65964;-52
2024/01/04 02:49:06;;;;;;;1.30;0.50;;;;;;;3.46;100.00;98312.13;108874;1254;72513;-53
2024/01/04 02:51:33;;;;;;;0.70;0.60;;;;;;;3.47;100.00;98314.55;108907;1253;59516;-52
2024/01/04 02:54:01;;;;;;;0.80;0.60;;;;;;;3.48;100.00;98314.69;109095;1253;58805;-54
2024/01/04 02:56:28;;;;;;;0.90;0.60;;;;;;;3.48;100.00;98319.30;108849;1256;73937;-53
2024/01/04 02:58:58;;;;;;;1.70;0.50;;;;;;;3.48;100.00;98320.02;108843;1256;65795;-54
2024/01/04 03:01:25;;;;;;;2.10;0.40;;;;;;;3.48;100.00;98326.90;108952;1258;72319;-52
2024/01/04 03:03:55;;;;;;;1.00;0.50;;;;;;;3.49;100.00;98324.38;108848;1254;60478;-53
2024/01/04 03:06:23;;;;;;;0.60;0.40;;;;;;;3.51;100.00;98326.95;109004;1253;59668;-54
2024/01/04 03:08:50;;;;;;;0.70;0.50;;;;;;;3.56;100.00;98332.95;108957;1253;72611;-53
2024/01/04 03:11:17;;;;;;;0.90;0.40;;;;;;;3.60;100.00;98333.83;106072;1258;67352;-55
2024/01/04 03:13:46;;;;;;;0.60;0.50;;;;;;;3.65;100.00;98334.85;104578;1259;73528;-52
2024/01/04 03:16:14;;;;;;;0.90;0.50;;;;;;;3.69;100.00;98336.46;104819;1254;60632;-52
2024/01/04 03:18:41;;;;;;;1.30;0.40;;;;;;;3.72;100.00;98341.33;104857;1259;60454;-53
2024/01/04 03:21:09;;;;;;;0.70;0.50;;;;;;;3.73;100.00;98335.06;104683;1256;72788;-53
2024/01/04 03:23:37;;;;;;;0.60;0.50;;;;;;;3.72;100.00;98338.46;104904;1256;64935;-53
2024/01/04 03:26:04;;;;;;;0.70;0.60;;;;;;;3.72;100.00;98339.73;105130;1258;72761;-53
2024/01/04 03:28:31;;;;;;;0.60;0.50;;;;;;;3.71;100.00;98339.75;104811;1253;60548;-51
2024/01/04 03:30:59;;;;;;;0.70;0.50;;;;;;;3.71;100.00;98342.05;104864;1259;60512;-53
2024/01/04 03:33:26;;;;;;;0.80;0.50;;;;;;;3.72;100.00;98351.41;104938;1258;73854;-55
2024/01/04 03:35:54;;;;;;;1.10;0.60;;;;;;;3.73;100.00;98353.33;108442;1257;69150;-54
2024/01/04 03:38:21;;;;;;;0.80;0.50;;;;;;;3.75;100.00;98358.71;104926;1258;70497;-54
2024/01/04 03:40:48;;;;;;;0.60;0.50;;;;;;;3.77;100.00;98365.02;104885;1254;60450;-54
2024/01/04 03:43:16;;;;;;;0.80;0.40;;;;;;;3.79;100.00;98369.90;104994;1257;62152;-54
2024/01/04 03:45:43;;;;;;;0.70;0.60;;;;;;;3.82;100.00;98372.30;105047;1259;73030;-54
2024/01/04 03:48:10;;;;;;;0.70;0.60;;;;;;;3.83;100.00;98372.27;104893;1256;65627;-53
2024/01/04 03:50:38;;;;;;;1.00;0.60;;;;;;;3.82;100.00;98373.38;106383;1253;72438;-55
2024/01/04 03:53:05;;;;;;;1.00;0.60;;;;;;;3.80;100.00;98368.46;104849;1257;61404;-53
2024/01/04 03:55:32;;;;;;;2.20;0.80;;;;;;;3.79;100.00;98369.22;104849;1259;60361;-56
2024/01/04 03:58:00;;;;;;;1.00;0.60;;;;;;;3.77;100.00;98370.33;104832;1257;73901;-53
2024/01/04 04:00:28;;;;;;;0.90;0.60;;;;;;;3.78;100.00;98373.51;104953;1253;67103;-55
2024/01/04 04:02:56;;;;;;;2.10;0.70;;;;;;;3.79;100.00;98373.30;105461;1258;73213;-57
2024/01/04 04:05:23;;;;;;;0.70;0.60;;;;;;;3.81;100.00;98375.54;105058;1259;60891;-57
2024/01/04 04:07:51;;;;;;;0.70;0.50;;;;;;;3.82;100.00;98375.14;104812;1257;60546;-56
2024/01/04 04:10:18;;;;;;;1.60;0.70;;;;;;;3.83;100.00;98375.80;104817;1257;73510;-52
2024/01/04 04:12:45;;;;;;;1.20;0.60;;;;;;;3.82;100.00;98374.24;104975;1258;67638;-53
2024/01/04 04:15:12;;;;;;;2.20;0.50;;;;;;;3.82;100.00;98376.58;104775;1257;72687;-54
2024/01/04 04:17:40;;;;;;;1.00;0.60;;;;;;;3.81;100.00;98381.76;105118;1259;61069;-55
2024/01/04 04:20:08;;;;;;;0.70;0.50;;;;;;;3.80;100.00;98381.61;104666;1256;61085;-55
2024/01/04 04:25:04;;;;;;;1.00;0.50;;;;;;;3.77;100.00;98437.05;102032;1290;600392;-54
2024/01/04 04:27:31;;;;;;;0.80;0.50;;;;;;;3.78;100.00;98470.05;104245;1267;60464;-53
2024/01/04 04:29:59;;;;;;;0.70;0.50;;;;;;;3.80;100.00;98457.37;103958;1269;59498;-52
2024/01/04 04:32:26;;;;;;;0.90;0.40;;;;;;;3.83;100.00;98452.99;104085;1263;72244;-54
2024/01/04 04:34:54;;;;;;;1.20;0.60;;;;;;;3.85;100.00;98446.85;103962;1265;67510;-53
2024/01/04 04:37:22;;;;;;;0.60;0.40;;;;;;;3.88;100.00;98444.79;104252;1265;72747;-53
2024/01/04 04:39:49;;;;;;;1.50;0.60;;;;;;;3.90;100.00;98445.08;104043;1269;217175;-52
2024/01/04 04:42:16;;;;;;;1.90;0.60;;;;;;;3.92;100.00;98446.76;104143;1268;59240;-52
2024/01/04 04:44:44;;;;;;;1.20;0.60;;;;;;;3.92;100.00;98446.37;104057;1263;72826;-51
2024/01/04 04:47:11;;;;;;;0.70;0.50;;;;;;;3.91;100.00;98448.02;104175;1261;67044;-53
2024/01/04 04:49:38;;;;;;;0.80;0.60;;;;;;;3.90;100.00;98450.02;104070;1264;71270;-53
2024/01/04 04:52:06;;;;;;;0.90;0.60;;;;;;;3.89;100.00;98449.88;104562;1264;60953;-53
2024/01/04 04:54:33;;;;;;;0.80;0.50;;;;;;;3.89;100.00;98449.17;103927;1264;60381;-54
2024/01/04 04:57:02;;;;;;;0.70;0.40;;;;;;;3.90;100.00;98446.85;104095;1261;74108;-54
2024/01/04 04:59:30;;;;;;;0.60;0.50;;;;;;;3.91;100.00;98453.34;107045;1264;65683;-52
2024/01/04 05:01:57;;;;;;;0.80;0.50;;;;;;;3.94;100.00;98460.14;104168;1261;73107;-51
2024/01/04 05:04:24;;;;;;;0.70;0.50;;;;;;;3.96;100.00;98462.73;104083;1264;60467;-52
2024/01/04 05:06:52;;;;;;;0.70;0.40;;;;;;;3.98;100.00;98468.52;104506;1269;60017;-51
2024/01/04 05:09:19;;;;;;;1.00;0.60;;;;;;;4.00;100.00;98475.15;108459;1263;73028;-52
2024/01/04 05:11:47;;;;;;;1.20;0.60;;;;;;;4.01;100.00;98477.58;108271;1263;68170;-52
2024/01/04 05:14:14;;;;;;;1.10;0.60;;;;;;;4.01;100.00;98477.58;103862;1264;73186;-52
2024/01/04 05:16:44;;;;;;;0.80;0.70;;;;;;;4.01;100.00;98479.02;103925;1267;59836;-52
2024/01/04 05:19:11;;;;;;;0.70;0.60;;;;;;;4.01;100.00;98484.70;104248;1263;60104;-52
2024/01/04 05:21:38;;;;;;;1.20;0.60;;;;;;;4.00;100.00;98483.83;104107;1266;71841;-51
2024/01/04 05:24:06;;;;;;;0.70;0.50;;;;;;;3.99;100.00;98484.08;104094;1269;67182;-51
2024/01/04 05:26:33;;;;;;;1.10;0.70;;;;;;;3.99;100.00;98482.50;108250;1264;71182;-53
2024/01/04 05:29:00;;;;;;;1.70;0.70;;;;;;;3.99;100.00;98482.33;108393;1264;60372;-52
2024/01/04 05:31:28;;;;;;;2.70;0.70;;;;;;;3.99;100.00;98491.56;108352;1264;58854;-53
2024/01/04 05:33:55;;;;;;;0.90;0.60;;;;;;;3.97;100.00;98490.21;108372;1268;71911;-52
2024/01/04 05:36:23;;;;;;;1.00;0.70;;;;;;;3.96;100.00;98492.36;108311;1264;67626;-52
2024/01/04 05:38:50;;;;;;;1.70;0.80;;;;;;;3.94;100.00;98493.68;108351;1264;74137;-53
2024/01/04 05:41:18;;;;;;;1.20;0.80;;;;;;;3.91;100.00;98492.95;108278;1267;59290;-53
2024/01/04 05:43:46;;;;;;;2.60;1.20;;;;;;;3.89;100.00;98497.30;108343;1264;58841;-53
2024/01/04 05:46:13;;;;;;;1.90;0.80;;;;;;;3.87;100.00;98497.20;108405;1263;73056;-52
2024/01/04 05:48:40;;;;;;;1.70;0.80;;;;;;;3.84;100.00;98499.59;108435;1264;65635;-53
2024/01/04 05:51:08;;;;;;;1.40;0.80;;;;;;;3.83;100.00;98499.67;108331;1264;73201;-52
2024/01/04 05:53:36;;;;;;;2.60;1.50;;;;;;;3.83;100.00;98502.86;108380;1265;58297;-53
2024/01/04 05:56:04;;;;;;;2.10;0.80;;;;;;;3.82;100.00;98503.45;108302;1264;60656;-53
2024/01/04 05:58:31;;;;;;;2.20;0.90;;;;;;;3.81;100.00;98502.41;105972;1266;73100;-52
2024/01/04 06:00:58;;;;;;;2.40;1.10;;;;;;;3.79;100.00;98503.36;104089;1269;67816;-51
2024/01/04 06:03:25;;;;;;;2.30;1.00;;;;;;;3.78;100.00;98508.73;104050;1266;71074;-52
2024/01/04 06:05:53;;;;;;;1.30;0.90;;;;;;;3.76;100.00;98510.23;104080;1263;61386;-52
2024/01/04 06:08:20;;;;;;;1.30;0.90;;;;;;;3.74;100.00;98512.41;105123;1269;59646;-53
2024/01/04 06:10:48;;;;;;;1.00;0.80;;;;;;;3.72;100.00;98507.39;103869;1264;73653;-52
2024/01/04 06:13:15;;;;;;;1.70;0.90;;;;;;;3.70;100.00;98507.29;104107;1269;67055;-53
2024/01/04 06:15:43;;;;;;;2.90;1.10;;;;;;;3.70;100.00;98510.84;106101;1267;71460;-53
2024/01/04 06:18:11;;;;;;;1.50;0.80;;;;;;;3.71;100.00;98510.80;104006;1267;60488;-51
2024/01/04 06:20:39;;;;;;;1.90;1.00;;;;;;;3.72;100.00;98505.06;104107;1264;60524;-53
2024/01/04 06:23:06;;;;;;;1.20;0.90;;;;;;;3.74;100.00;98505.52;105319;1265;71102;-52
2024/01/04 06:25:34;;;;;;;2.00;1.00;;;;;;;3.76;100.00;98504.89;104104;1263;67256;-53
2024/01/04 06:28:01;;;;;;;1.60;1.20;;;;;;;3.77;100.00;98508.04;104189;1269;71058;-53
2024/01/04 06:30:29;;;;;;;1.60;1.00;;;;;;;3.78;100.00;98508.55;103968;1269;59819;-53
2024/01/04 06:32:57;;;;;;;1.40;0.90;;;;;;;3.77;100.00;98511.58;104638;1257;62535;-51
2024/01/04 06:35:24;;;;;;;2.30;0.70;;;;;;;3.77;100.00;98515.33;105001;1262;73033;-53
2024/01/04 06:37:51;;;;;;;2.00;0.90;;;;;;;3.76;100.00;98515.02;104667;1262;67249;-54
2024/01/04 06:40:19;;;;;;;1.70;0.80;;;;;;;3.75;100.00;98513.98;104512;1257;72210;-55
2024/01/04 06:42:54;;;;;;;1.90;1.20;;;;;;;3.75;100.00;98518.39;104565;1258;60712;-54
2024/01/04 06:45:22;;;;;;;3.00;0.80;;;;;;;3.78;100.00;98524.69;104551;1260;60155;-54
2024/01/04 06:47:50;;;;;;;2.30;0.80;;;;;;;3.80;100.00;98520.53;104547;1258;73122;-53
2024/01/04 06:50:18;;;;;;;1.60;0.80;;;;;;;3.83;100.00;98522.00;104657;1262;67248;-52
2024/01/04 06:52:46;;;;;;;4.00;0.90;;;;;;;3.85;100.00;98522.28;104723;1260;71527;-50
2024/01/04 06:55:14;;;;;;;2.20;0.90;;;;;;;3.87;100.00;98523.10;104531;1257;59817;-52
2024/01/04 06:57:41;;;;;;;3.20;0.90;;;;;;;3.87;100.00;98529.66;104650;1261;59580;-55
2024/01/04 07:00:10;;;;;;;1.90;1.00;;;;;;;3.87;100.00;98528.96;106230;1260;72264;-55
2024/01/04 07:02:41;;;;;;;1.80;0.80;;;;;;;3.86;100.00;98536.09;104767;1262;67539;-57
2024/01/04 07:05:11;;;;;;;4.00;1.20;;;;;;;3.85;100.00;98534.70;104682;1261;72847;-54
2024/01/04 07:07:39;;;;;;;3.00;1.00;;;;;;;3.85;100.00;98540.71;108308;1258;60820;-53
2024/01/04 07:10:07;;;;;;;1.70;0.80;;;;;;;3.87;100.00;98541.20;106335;1262;59775;-53
2024/01/04 07:12:34;;;;;;;2.90;0.90;;;;;;;3.89;100.00;98540.94;104494;1263;73633;-54
2024/01/04 07:15:02;;;;;;;2.20;0.90;;;;;;;3.91;100.00;98547.06;104741;1263;67101;-54
2024/01/04 07:17:30;;;;;;;2.40;1.00;;;;;;;3.94;100.00;98548.18;104432;1262;71471;-56
2024/01/04 07:19:57;;;;;;;3.90;1.30;;;;;;;3.96;100.00;98550.58;104971;1258;60656;-55
2024/01/04 07:22:25;;;;;;;3.40;1.30;;;;;;;3.97;100.00;98551.62;104783;1262;59635;-54
2024/01/04 07:24:52;;;;;;;2.00;1.10;;;;;;;3.97;100.00;98556.04;104787;1263;72049;-54
2024/01/04 07:27:20;;;;;;;4.20;1.30;;;;;;;3.97;100.00;98557.64;104393;1263;65485;-55
2024/01/04 07:29:48;;;;;;;1.20;1.00;;;;;;;3.99;100.00;98559.36;104976;1263;72779;-55
2024/01/04 07:32:18;;;;;;;4.60;1.00;;;;;;;4.00;100.00;98559.47;104584;1263;59694;-54
2024/01/04 07:34:46;;;;;;;3.20;1.40;;;;;;;4.01;100.00;98560.48;104445;1256;60081;-56
2024/01/04 07:37:26;;;;;;;2.80;0.90;;;;;;;4.04;100.00;98565.34;104955;1261;70857;-55
2024/01/04 07:39:54;;;;;;;1.20;0.90;;;;;;;4.08;100.00;98565.20;104575;1263;65168;-55
2024/01/04 07:42:21;;;;;;;2.00;1.30;;;;;;;4.11;100.00;98564.51;104713;1260;72691;-55
2024/01/04 07:44:49;;;;;;;1.90;1.10;;;;;;;4.14;100.00;98567.04;104577;1262;60227;-55
2024/01/04 07:47:31;;;;;;;2.00;1.30;;;;;;;4.19;100.00;98572.17;104723;1266;59797;-56
2024/01/04 07:49:58;;;;;;;4.90;1.40;;;;;;;4.23;100.00;98569.03;104731;1257;72109;-56
2024/01/04 07:52:26;;;;;;;2.00;1.30;;;;;;;4.26;100.00;98572.98;104619;1257;66773;-54
2024/01/04 07:54:53;;;;;;;3.20;1.40;;;;;;;4.28;100.00;98572.15;104733;1263;72793;-57
2024/01/04 07:57:21;;;;;;;2.40;1.50;;;;;;;4.29;100.00;98575.65;104675;1264;61062;-56
2024/01/04 07:59:48;;;;;;;1.40;0.80;;;;;;;4.30;100.00;98573.65;104718;1257;60071;-55
2024/01/04 08:02:17;;;;;;;2.00;1.10;;;;;;;4.30;100.00;98575.08;104721;1257;72252;-56
2024/01/04 08:04:44;;;;;;;1.40;0.90;;;;;;;4.34;100.00;98577.60;104709;1261;67001;-55
2024/01/04 08:07:11;;;;;;;2.40;1.00;;;;;;;4.37;100.00;98582.97;104431;1263;73392;-57
2024/01/04 08:09:39;;;;;;;1.90;0.90;;;;;;;4.41;100.00;98586.36;104667;1257;60211;-55
2024/01/04 08:12:09;;;;;;;3.30;1.40;;;;;;;4.47;100.00;98587.70;104618;1257;62280;-55
2024/01/04 08:14:36;;;;;;;2.80;0.80;;;;;;;4.53;100.00;98592.94;106983;1257;71502;-55
2024/01/04 08:17:04;;;;;;;2.50;1.00;;;;;;;4.60;100.00;98595.48;108760;1257;65608;-57
2024/01/04 08:19:32;;;;;;;1.30;0.90;;;;;;;4.65;100.00;98598.66;108764;1257;72864;-56
2024/01/04 08:21:59;;;;;;;3.20;0.80;;;;;;;4.69;100.00;98599.39;108775;1257;58073;-56
2024/01/04 08:24:28;;;;;;;3.10;0.90;;;;;;;4.71;100.00;98600.69;104892;1257;60706;-56
2024/01/04 08:26:57;;;;;;;2.50;0.80;;;;;;;4.72;100.00;98599.96;104738;1263;73073;-56
2024/01/04 08:29:25;;;;;;;1.10;0.90;;;;;;;4.72;100.00;98599.95;108706;1262;69350;-57
2024/01/04 08:31:53;;;;;;;3.80;1.10;;;;;;;4.73;100.00;98603.63;104787;1263;71407;-54
2024/01/04 08:34:20;;;;;;;1.40;0.70;;;;;;;4.76;100.00;98606.38;104768;1262;60553;-56
2024/01/04 08:36:47;;;;;;;1.50;0.80;;;;;;;4.79;100.00;98607.98;104602;1262;60549;-56
2024/01/04 08:39:15;;;;;;;1.00;0.70;;;;;;;4.83;100.00;98610.48;104791;1261;72945;-58
2024/01/04 08:41:42;;;;;;;2.90;1.10;;;;;;;4.87;100.00;98615.30;104632;1256;64611;-57
2024/01/04 08:44:09;;;;;;;2.00;1.00;;;;;;;4.90;100.00;98616.75;104624;1264;71516;-56
2024/01/04 08:46:37;;;;;;;2.90;0.80;;;;;;;4.94;100.00;98618.18;104335;1263;60790;-57
2024/01/04 08:49:07;;;;;;;2.30;0.90;;;;;;;4.97;100.00;98624.99;108806;1257;58851;-57
2024/01/04 08:51:35;;;;;;;1.80;0.90;;;;;;;4.99;100.00;98624.55;108783;1258;73908;-58
2024/01/04 08:54:02;;;;;;;1.30;0.90;;;;;;;5.02;100.00;98630.45;108113;1258;65656;-57
2024/01/04 08:56:30;;;;;;;2.00;0.80;;;;;;;5.05;100.00;98631.76;105124;1263;75551;-57
2024/01/04 08:58:57;;;;;;;1.40;0.70;;;;;;;5.08;100.00;98633.05;104764;1261;60629;-56
2024/01/04 09:01:25;;;;;;;2.20;0.90;;;;;;;5.11;100.00;98637.33;104883;1258;60457;-57
2024/01/04 09:03:52;;;;;;;1.50;0.80;;;;;;;5.15;100.00;98639.66;104679;1257;74253;-59
2024/01/04 09:06:20;;;;;;;1.70;1.10;;;;;;;5.18;100.00;98635.80;104741;1258;65778;-58
2024/01/04 09:08:48;;;;;;;1.30;1.10;;;;;;;5.20;100.00;98641.38;104843;1263;72847;-55
2024/01/04 09:11:16;;;;;;;2.30;1.30;;;;;;;5.22;100.00;98642.02;104629;1258;60546;-54
2024/01/04 09:13:45;;;;;;;2.30;2.10;;;;;;;5.21;100.00;98645.25;104742;1261;60430;-57
2024/01/04 09:16:13;;;;;;;4.00;1.70;;;;;;;5.20;100.00;98646.34;104741;1263;74021;-55
2024/01/04 09:18:40;;;;;;;4.20;2.70;;;;;;;5.20;100.00;98647.60;104483;1258;65402;-57
2024/01/04 09:21:10;;;;;;;3.20;2.40;;;;;;;5.20;100.00;98652.21;106163;1257;73218;-56
2024/01/04 09:23:37;;;;;;;2.10;1.80;;;;;;;5.21;100.00;98651.14;104891;1257;60555;-56
2024/01/04 09:26:08;;;;;;;3.00;2.00;;;;;;;5.22;100.00;98649.30;104693;1262;60377;-57
2024/01/04 09:28:36;;;;;;;4.30;1.20;;;;;;;5.23;100.00;98653.35;104780;1256;74810;-56
2024/01/04 09:31:03;;;;;;;1.50;1.10;;;;;;;5.26;100.00;98651.83;104644;1263;66406;-56
2024/01/04 09:33:31;;;;;;;1.80;0.90;;;;;;;5.28;100.00;98651.52;104565;1262;71560;-58
2024/01/04 09:35:58;;;;;;;2.80;1.20;;;;;;;5.32;100.00;98657.05;104546;1257;60970;-56
2024/01/04 09:38:27;;;;;;;2.20;1.20;;;;;;;5.35;100.00;98656.41;105547;1258;61115;-59
2024/01/04 09:40:58;;;;;;;1.30;0.90;;;;;;;5.36;100.00;98654.95;104460;1257;72782;-58
2024/01/04 09:43:28;;;;;;;1.20;0.80;;;;;;;5.36;100.00;98656.67;104959;1257;66796;-58
2024/01/04 09:45:55;;;;;;;1.70;1.10;;;;;;;5.37;100.00;98657.53;105172;1261;71472;-58
2024/01/04 09:48:22;;;;;;;1.70;1.00;;;;;;;5.39;100.00;98659.23;104375;1263;61848;-54
2024/01/04 09:50:58;;;;;;;5.40;2.50;;;;;;;5.42;100.00;98665.52;104475;1264;60492;-57
2024/01/04 09:53:25;;;;;;;6.50;4.00;;;;;;;5.44;100.00;98664.69;105047;1258;72659;-55
2024/01/04 09:55:53;;;;;;;12.10;6.20;;;;;;;5.47;100.00;98668.46;104209;1264;65520;-55
2024/01/04 09:58:24;;;;;;;17.10;8.70;;;;;;;5.50;100.00;98670.82;104994;1263;73590;-59
2024/01/04 10:00:52;;;;;;;17.20;9.60;;;;;;;5.53;100.00;98667.14;104568;1257;60552;-57
2024/01/04 10:03:19;;;;;;;11.70;7.20;;;;;;;5.55;100.00;98663.83;107484;1263;60553;-56
2024/01/04 10:05:47;;;;;;;10.50;5.90;;;;;;;5.56;100.00;98662.38;105921;1258;74364;-56
2024/01/04 10:08:19;;;;;;;7.60;3.90;;;;;;;5.55;100.00;98662.59;104570;1258;67310;-56
2024/01/04 10:10:46;;;;;;;5.60;2.70;;;;;;;5.54;100.00;98658.58;105945;1257;74054;-55
2024/01/04 10:13:13;;;;;;;3.90;1.20;;;;;;;5.52;100.00;98655.80;104464;1259;61697;-57
2024/01/04 10:15:42;;;;;;;3.10;1.10;;;;;;;5.53;100.00;98658.05;104508;1261;60555;-57
2024/01/04 10:18:12;;;;;;;2.20;1.00;;;;;;;5.55;100.00;98662.57;104552;1257;73060;-56
2024/01/04 10:20:40;;;;;;;2.80;0.80;;;;;;;5.61;100.00;98671.58;104259;1263;65722;-55
2024/01/04 10:23:11;;;;;;;3.40;1.40;;;;;;;5.67;100.00;98669.16;104436;1257;71180;-56
2024/01/04 10:25:38;;;;;;;10.60;5.00;;;;;;;5.76;100.00;98673.74;104641;1257;60551;-57
2024/01/04 10:28:06;;;;;;;14.90;6.90;;;;;;;5.85;100.00;98676.17;104497;1262;60771;-55
2024/01/04 10:30:40;;;;;;;18.50;9.00;;;;;;;5.95;100.00;98679.27;104744;1260;72838;-55
2024/01/04 10:33:07;;;;;;;15.20;7.90;;;;;;;6.03;100.00;98683.89;104832;1263;65721;-55
2024/01/04 10:35:35;;;;;;;9.10;6.10;;;;;;;6.09;100.00;98683.42;104795;1263;73152;-57
2024/01/04 10:38:02;;;;;;;11.60;5.80;;;;;;;6.16;100.00;98691.65;104460;1260;60488;-58
2024/01/04 10:40:30;;;;;;;5.80;2.60;;;;;;;6.24;100.00;98701.27;104384;1262;60492;-56
2024/01/04 10:43:01;;;;;;;2.10;1.30;;;;;;;6.31;100.00;98709.83;105368;1264;74323;-59
2024/01/04 10:45:29;;;;;;;2.70;1.40;;;;;;;6.39;100.00;98718.17;105458;1257;66014;-52
2024/01/04 10:47:57;;;;;;;3.60;1.20;;;;;;;6.47;100.00;98723.31;104854;1260;72852;-58
2024/01/04 10:50:25;;;;;;;2.20;1.00;;;;;;;6.53;100.00;98734.95;104875;1257;59713;-58
2024/01/04 10:52:56;;;;;;;2.00;0.80;;;;;;;6.59;100.00;98738.79;104726;1261;61579;-58
2024/01/04 10:55:24;;;;;;;0.90;0.70;;;;;;;6.63;100.00;98744.30;104675;1254;74248;-56
2024/01/04 10:57:51;;;;;;;1.20;0.90;;;;;;;6.65;100.00;98748.29;108198;1254;66633;-59
2024/01/04 11:00:19;;;;;;;2.00;0.90;;;;;;;6.65;100.00;98748.97;104909;1254;72736;-59
2024/01/04 11:02:47;;;;;;;1.30;0.90;;;;;;;6.64;100.00;98746.20;104705;1260;62701;-55
2024/01/04 11:05:14;;;;;;;3.40;0.70;;;;;;;6.64;100.00;98752.11;104742;1254;60348;-58
2024/01/04 11:07:42;;;;;;;2.20;0.70;;;;;;;6.62;100.00;98748.41;105644;1257;73861;-58
2024/01/04 11:10:10;;;;;;;1.00;0.70;;;;;;;6.62;100.00;98748.80;104765;1254;65843;-57
2024/01/04 11:12:38;;;;;;;2.00;0.70;;;;;;;6.62;100.00;98748.44;104851;1258;70861;-55
2024/01/04 11:15:05;;;;;;;1.40;1.00;;;;;;;6.63;100.00;98747.48;104806;1257;61708;-56
2024/01/04 11:18:19;;;;;;;7.90;3.30;;;;;;;6.65;100.00;98749.70;104757;1254;60640;-57
2024/01/04 11:21:08;;;;;;;16.20;9.00;;;;;;;6.67;100.00;98767.25;104627;1257;73978;-57
2024/01/04 11:24:00;;;;;;;8.60;4.80;;;;;;;6.68;100.00;98768.65;108984;1253;65833;-58
2024/01/04 11:26:27;;;;;;;6.00;3.00;;;;;;;6.68;100.00;98770.09;109034;1254;72269;-59
2024/01/04 11:28:59;;;;;;;3.40;1.60;;;;;;;6.69;100.00;98765.38;108933;1253;61819;-57
2024/01/04 11:31:26;;;;;;;2.10;0.90;;;;;;;6.73;100.00;98769.79;109013;1254;60120;-58